createdAt,value
2022-09-29T00:00:29.823Z,98200.27
2022-09-29T00:01:29.524Z,98200.05
2022-09-29T00:02:29.374Z,98200.45
2022-09-29T00:03:29.456Z,98199.58
2022-09-29T00:04:29.410Z,98198.78
2022-09-29T00:05:29.467Z,98197.44
2022-09-29T00:06:29.468Z,98197.41
2022-09-29T00:07:29.438Z,98197.58
2022-09-29T00:08:30.667Z,98194.19
2022-09-29T00:09:29.469Z,98195.23
2022-09-29T00:10:29.522Z,98196.25
2022-09-29T00:11:29.802Z,98197.78
2022-09-29T00:12:29.535Z,98194.81
2022-09-29T00:13:29.529Z,98194.34
2022-09-29T00:14:29.768Z,98196.7
2022-09-29T00:15:29.614Z,98198.62
2022-09-29T00:16:29.935Z,98200.2
2022-09-29T00:17:29.933Z,98199.7
2022-09-29T00:18:30.507Z,98204.54
2022-09-29T00:19:29.696Z,98201.2
2022-09-29T00:20:29.957Z,98200.95
2022-09-29T00:21:29.708Z,98201.91
2022-09-29T00:22:30.121Z,98198.89
2022-09-29T00:23:30.564Z,98200.08
2022-09-29T00:24:29.719Z,98198.73
2022-09-29T00:25:30.185Z,98196.96
2022-09-29T00:26:29.833Z,98198.33
2022-09-29T00:27:29.753Z,98197.38
2022-09-29T00:28:30.025Z,98200.45
2022-09-29T00:29:29.819Z,98201.2
2022-09-29T00:30:29.850Z,98199.75
2022-09-29T00:31:31.509Z,98195.35
2022-09-29T00:32:29.870Z,98199.94
2022-09-29T00:33:31.188Z,98198.17
2022-09-29T00:34:29.877Z,98198.29
2022-09-29T00:35:29.884Z,98195.48
2022-09-29T00:36:29.931Z,98199.24
2022-09-29T00:37:29.920Z,98200.48
2022-09-29T00:38:30.342Z,98195.1
2022-09-29T00:39:29.994Z,98198.3
2022-09-29T00:40:30.038Z,98197.54
2022-09-29T00:41:31.803Z,98198.78
2022-09-29T00:42:30.005Z,98199.66
2022-09-29T00:45:36.211Z,98199.08
2022-09-29T00:47:37.915Z,98198.88
2022-09-29T00:48:37.473Z,98203.96
2022-09-29T00:50:47.440Z,98201.83
2022-09-29T00:51:46.416Z,98197.56
2022-09-29T00:52:46.607Z,98199.08
2022-09-29T00:53:43.864Z,98195.31
2022-09-29T00:54:52.401Z,98196.38
2022-09-29T00:56:50.445Z,98196.33
2022-09-29T00:57:53.198Z,98195.11
2022-09-29T00:58:52.626Z,98195
2022-09-29T00:59:52.968Z,98193.46
2022-09-29T01:00:50.335Z,98188.07
2022-09-29T01:01:50.431Z,98188.98
2022-09-29T01:02:51.913Z,98188.17
2022-09-29T01:03:52.099Z,98184.5
2022-09-29T01:04:51.538Z,98186.31
2022-09-29T01:05:51.812Z,98185.95
2022-09-29T01:06:54.105Z,98187.55
2022-09-29T01:07:50.704Z,98184.14
2022-09-29T01:09:53.630Z,98185.05
2022-09-29T01:10:52.261Z,98187.19
2022-09-29T01:11:52.787Z,98180.88
2022-09-29T01:12:52.274Z,98181.44
2022-09-29T01:13:52.651Z,98182.86
2022-09-29T01:14:55.822Z,98180.62
2022-09-29T01:15:52.218Z,98179.23
2022-09-29T01:16:52.294Z,98181.7
2022-09-29T01:17:52.430Z,98181.2
2022-09-29T01:18:52.852Z,98182.72
2022-09-29T01:20:03.367Z,98180.7
2022-09-29T01:25:17.968Z,98179.69
2022-09-29T01:28:24.670Z,98177.93
2022-09-29T01:32:33.263Z,98178.48
2022-09-29T01:33:35.841Z,98180.3
2022-09-29T01:35:43.126Z,98180.98
2022-09-29T01:39:51.341Z,98183.88
2022-09-29T01:41:55.241Z,98182.89
2022-09-29T01:42:55.341Z,98186.62
2022-09-29T01:44:54.633Z,98188.94
2022-09-29T01:47:58.255Z,98184.02
2022-09-29T01:48:56.637Z,98187.8
2022-09-29T01:51:01.042Z,98189.33
2022-09-29T01:54:09.377Z,98186.42
2022-09-29T01:56:14.289Z,98189.86
2022-09-29T01:57:15.112Z,98183.12
2022-09-29T01:58:18.487Z,98186.59
2022-09-29T02:00:17.266Z,98184.68
2022-09-29T02:01:17.124Z,98187.53
2022-09-29T02:03:18.530Z,98184.98
2022-09-29T02:06:29.492Z,98181.17
2022-09-29T02:07:25.853Z,98184.47
2022-09-29T02:08:28.341Z,98185.82
2022-09-29T02:09:28.216Z,98176.3
2022-09-29T02:10:34.026Z,98179.84
2022-09-29T02:11:26.935Z,98180.22
2022-09-29T02:12:28.000Z,98182.44
2022-09-29T02:13:26.805Z,98175.87
2022-09-29T02:14:28.244Z,98176.46
2022-09-29T02:15:28.275Z,98178.55
2022-09-29T02:16:36.736Z,98171.17
2022-09-29T02:17:33.398Z,98177.06
2022-09-29T02:18:34.607Z,98173.11
2022-09-29T02:19:34.188Z,98171.48
2022-09-29T02:20:31.559Z,98171.34
2022-09-29T02:21:31.574Z,98178.52
2022-09-29T02:22:31.755Z,98173.89
2022-09-29T02:23:31.593Z,98170.33
2022-09-29T02:24:32.012Z,98172.97
2022-09-29T02:25:35.005Z,98170.84
2022-09-29T02:26:33.159Z,98173.98
2022-09-29T02:27:31.896Z,98171.91
2022-09-29T02:28:31.728Z,98170.03
2022-09-29T02:29:32.512Z,98168.78
2022-09-29T02:30:32.173Z,98175.77
2022-09-29T02:31:32.960Z,98171.24
2022-09-29T02:32:33.466Z,98169.19
2022-09-29T02:33:31.804Z,98169.47
2022-09-29T02:34:34.305Z,98169.96
2022-09-29T02:35:45.596Z,98170.73
2022-09-29T02:36:46.316Z,98174.09
2022-09-29T02:40:48.941Z,98169.73
2022-09-29T02:55:29.976Z,98169.24
2022-09-29T02:57:32.334Z,98169.77
2022-09-29T02:58:32.839Z,98171.08
2022-09-29T03:00:34.461Z,98165.25
2022-09-29T03:01:34.574Z,98164.05
2022-09-29T03:02:34.642Z,98163.98
2022-09-29T03:03:34.154Z,98166.3
2022-09-29T03:04:34.088Z,98163.95
2022-09-29T03:05:34.118Z,98164
2022-09-29T03:06:34.075Z,98167.27
2022-09-29T03:07:35.761Z,98165.31
2022-09-29T03:08:34.093Z,98166.85
2022-09-29T03:09:34.116Z,98170.73
2022-09-29T03:10:34.188Z,98166.23
2022-09-29T03:11:34.178Z,98164.12
2022-09-29T03:12:34.719Z,98164.73
2022-09-29T03:13:34.284Z,98161.84
2022-09-29T03:14:34.232Z,98167.34
2022-09-29T03:15:34.235Z,98164.85
2022-09-29T03:16:34.776Z,98166.62
2022-09-29T03:17:34.500Z,98166.52
2022-09-29T03:18:34.580Z,98166
2022-09-29T03:19:34.305Z,98165.98
2022-09-29T03:20:34.299Z,98169.99
2022-09-29T03:21:35.268Z,98164.83
2022-09-29T03:22:34.494Z,98162.08
2022-09-29T03:23:34.580Z,98159.97
2022-09-29T03:24:34.435Z,98162.12
2022-09-29T03:25:34.668Z,98158.58
2022-09-29T03:26:34.423Z,98160.21
2022-09-29T03:27:34.656Z,98164.8
2022-09-29T03:28:34.462Z,98165.56
2022-09-29T03:29:34.484Z,98168.36
2022-09-29T03:30:34.485Z,98163.64
2022-09-29T03:31:34.558Z,98161.98
2022-09-29T03:32:34.489Z,98163.8
2022-09-29T03:33:34.764Z,98167.83
2022-09-29T03:34:34.731Z,98164.78
2022-09-29T03:35:34.523Z,98168.69
2022-09-29T03:36:34.583Z,98169.83
2022-09-29T03:37:34.741Z,98169.87
2022-09-29T03:38:35.167Z,98168.99
2022-09-29T03:39:34.834Z,98173.62
2022-09-29T03:40:34.630Z,98172.07
2022-09-29T03:41:34.674Z,98171.5
2022-09-29T03:42:34.654Z,98169.89
2022-09-29T03:43:34.690Z,98169.14
2022-09-29T03:44:34.789Z,98166.02
2022-09-29T03:45:34.746Z,98168.83
2022-09-29T03:46:34.897Z,98169.91
2022-09-29T03:47:34.744Z,98167.7
2022-09-29T03:48:34.739Z,98171.23
2022-09-29T03:49:34.839Z,98170.78
2022-09-29T03:50:34.744Z,98173.94
2022-09-29T03:51:34.842Z,98172.31
2022-09-29T03:52:35.040Z,98171.09
2022-09-29T03:53:35.136Z,98174.44
2022-09-29T03:54:34.847Z,98174.65
2022-09-29T03:55:34.907Z,98171.48
2022-09-29T03:56:35.770Z,98174.12
2022-09-29T03:57:34.888Z,98171.48
2022-09-29T03:58:35.183Z,98171.38
2022-09-29T03:59:34.979Z,98170.51
2022-09-29T04:00:34.987Z,98174.62
2022-09-29T04:01:35.417Z,98175.28
2022-09-29T04:02:35.231Z,98174.16
2022-09-29T04:03:35.445Z,98176.42
2022-09-29T04:04:35.058Z,98174.59
2022-09-29T04:05:35.230Z,98171.27
2022-09-29T04:06:35.090Z,98172.05
2022-09-29T04:07:35.127Z,98173.25
2022-09-29T04:08:38.235Z,98168.5
2022-09-29T04:09:35.123Z,98169.95
2022-09-29T04:10:36.005Z,98170.88
2022-09-29T04:11:35.178Z,98171.92
2022-09-29T04:12:35.134Z,98169.7
2022-09-29T04:13:35.393Z,98166.83
2022-09-29T04:14:35.261Z,98167.89
2022-09-29T04:15:35.612Z,98166.48
2022-09-29T04:16:35.244Z,98168.29
2022-09-29T04:17:35.222Z,98166.16
2022-09-29T04:18:36.235Z,98165.07
2022-09-29T04:19:35.332Z,98165.91
2022-09-29T04:20:37.310Z,98160.55
2022-09-29T04:21:35.271Z,98160.83
2022-09-29T04:22:35.285Z,98160.25
2022-09-29T04:23:35.560Z,98157.14
2022-09-29T04:24:35.353Z,98159.11
2022-09-29T04:25:35.357Z,98153.38
2022-09-29T04:26:35.565Z,98149.08
2022-09-29T04:27:35.373Z,98150.94
2022-09-29T04:28:36.411Z,98151.52
2022-09-29T04:29:35.393Z,98148.8
2022-09-29T04:30:35.408Z,98149.8
2022-09-29T04:31:35.526Z,98153.16
2022-09-29T04:32:35.604Z,98151.61
2022-09-29T04:33:35.460Z,98144.67
2022-09-29T04:34:35.447Z,98153.55
2022-09-29T04:35:37.095Z,98147.47
2022-09-29T04:36:35.481Z,98149.55
2022-09-29T04:37:35.483Z,98151.33
2022-09-29T04:38:35.556Z,98152.47
2022-09-29T04:39:35.562Z,98152.17
2022-09-29T04:40:36.069Z,98150.52
2022-09-29T04:41:35.520Z,98156.12
2022-09-29T04:42:35.580Z,98157.48
2022-09-29T04:43:35.594Z,98154.87
2022-09-29T04:44:35.605Z,98156.12
2022-09-29T04:45:35.670Z,98157.95
2022-09-29T04:46:35.583Z,98156.8
2022-09-29T04:47:35.684Z,98163.05
2022-09-29T04:48:36.467Z,98161.53
2022-09-29T04:49:35.615Z,98164.08
2022-09-29T04:50:35.849Z,98166.27
2022-09-29T04:51:35.679Z,98169.3
2022-09-29T04:52:36.479Z,98167.48
2022-09-29T04:53:35.852Z,98172.66
2022-09-29T04:54:38.083Z,98175.62
2022-09-29T04:55:36.890Z,98172.91
2022-09-29T04:56:35.734Z,98175.7
2022-09-29T04:57:35.752Z,98174.16
2022-09-29T04:58:36.099Z,98174.47
2022-09-29T04:59:35.891Z,98171.47
2022-09-29T05:00:35.897Z,98171.72
2022-09-29T05:01:36.401Z,98176.69
2022-09-29T05:02:36.085Z,98170.61
2022-09-29T05:03:36.046Z,98175.3
2022-09-29T05:04:39.493Z,98174.69
2022-09-29T05:05:36.152Z,98175.48
2022-09-29T05:06:36.435Z,98176.55
2022-09-29T05:07:36.740Z,98173.81
2022-09-29T05:08:36.389Z,98175.48
2022-09-29T05:09:36.371Z,98174.11
2022-09-29T05:10:36.446Z,98174.52
2022-09-29T05:11:36.222Z,98171.97
2022-09-29T05:12:36.390Z,98177.4
2022-09-29T05:13:36.737Z,98171.01
2022-09-29T05:14:36.261Z,98172.2
2022-09-29T05:15:36.332Z,98169.14
2022-09-29T05:16:36.619Z,98169.58
2022-09-29T05:17:36.430Z,98171.92
2022-09-29T05:18:36.571Z,98168.45
2022-09-29T05:19:36.382Z,98169.25
2022-09-29T05:20:44.722Z,98167.72
2022-09-29T05:21:37.618Z,98169.84
2022-09-29T05:22:37.459Z,98172.98
2022-09-29T05:23:37.650Z,98169.89
2022-09-29T05:24:37.913Z,98170.53
2022-09-29T05:25:38.379Z,98169.5
2022-09-29T05:26:38.131Z,98167.78
2022-09-29T05:27:38.145Z,98168.19
2022-09-29T05:28:38.632Z,98171.47
2022-09-29T05:29:37.643Z,98171.44
2022-09-29T05:30:39.224Z,98169.89
2022-09-29T05:31:39.695Z,98167.73
2022-09-29T05:32:37.678Z,98164.7
2022-09-29T05:33:37.874Z,98168.2
2022-09-29T05:34:37.595Z,98170.23
2022-09-29T05:35:37.927Z,98167.85
2022-09-29T05:36:37.739Z,98169.45
2022-09-29T05:37:37.670Z,98168.62
2022-09-29T05:38:38.506Z,98169.37
2022-09-29T05:39:38.209Z,98169.36
2022-09-29T05:40:38.060Z,98169.72
2022-09-29T05:41:37.741Z,98173.77
2022-09-29T05:42:38.034Z,98168.75
2022-09-29T05:43:38.141Z,98168.28
2022-09-29T05:44:37.955Z,98167.02
2022-09-29T05:45:37.811Z,98165.84
2022-09-29T05:46:37.904Z,98169.11
2022-09-29T05:47:41.476Z,98165.52
2022-09-29T05:48:38.266Z,98163.36
2022-09-29T05:49:38.297Z,98167.01
2022-09-29T05:50:38.332Z,98169.69
2022-09-29T05:51:38.496Z,98164.8
2022-09-29T05:52:39.616Z,98166.95
2022-09-29T05:53:38.768Z,98168.75
2022-09-29T05:54:38.521Z,98164.73
2022-09-29T05:55:38.838Z,98166.66
2022-09-29T05:56:43.031Z,98164.02
2022-09-29T05:57:41.928Z,98171.33
2022-09-29T05:58:42.343Z,98167.2
2022-09-29T05:59:42.238Z,98167.85
2022-09-29T06:00:42.536Z,98168.97
2022-09-29T06:01:42.388Z,98168.21
2022-09-29T06:02:42.002Z,98168.7
2022-09-29T06:03:42.584Z,98166.8
2022-09-29T06:04:42.373Z,98166.1
2022-09-29T06:05:42.009Z,98165.8
2022-09-29T06:06:42.271Z,98171.16
2022-09-29T06:07:42.028Z,98166.34
2022-09-29T06:08:42.556Z,98165.39
2022-09-29T06:09:42.055Z,98166.36
2022-09-29T06:10:42.057Z,98167.03
2022-09-29T06:11:42.252Z,98166.4
2022-09-29T06:12:42.110Z,98167.28
2022-09-29T06:13:45.829Z,98168.16
2022-09-29T06:14:42.496Z,98168.39
2022-09-29T06:15:42.596Z,98161.89
2022-09-29T06:16:42.573Z,98170.66
2022-09-29T06:17:42.572Z,98165.38
2022-09-29T06:18:43.014Z,98167.17
2022-09-29T06:19:44.739Z,98169.99
2022-09-29T06:20:42.538Z,98168.06
2022-09-29T06:21:42.654Z,98167.52
2022-09-29T06:22:42.607Z,98166.23
2022-09-29T06:23:42.870Z,98167.23
2022-09-29T06:24:42.662Z,98164.03
2022-09-29T06:25:42.618Z,98166.55
2022-09-29T06:26:42.697Z,98167.43
2022-09-29T06:27:42.768Z,98167.59
2022-09-29T06:28:42.715Z,98167.78
2022-09-29T06:29:42.710Z,98166.45
2022-09-29T06:30:42.749Z,98167.26
2022-09-29T06:31:42.874Z,98169.3
2022-09-29T06:32:42.941Z,98167.64
2022-09-29T06:33:42.978Z,98167.2
2022-09-29T06:34:43.533Z,98166.2
2022-09-29T06:35:49.345Z,98168.62
2022-09-29T06:36:46.491Z,98167.27
2022-09-29T06:37:46.352Z,98169.38
2022-09-29T06:38:47.239Z,98168.25
2022-09-29T06:39:46.087Z,98169.67
2022-09-29T06:40:46.425Z,98168.42
2022-09-29T06:41:46.629Z,98172.79
2022-09-29T06:42:46.075Z,98171.14
2022-09-29T06:43:46.370Z,98169.8
2022-09-29T06:44:46.167Z,98172.89
2022-09-29T06:45:46.168Z,98175.59
2022-09-29T06:46:46.234Z,98173.55
2022-09-29T06:47:46.167Z,98172.69
2022-09-29T06:48:46.164Z,98171.73
2022-09-29T06:49:52.576Z,98175.33
2022-09-29T06:50:59.687Z,98175.97
2022-09-29T06:51:52.677Z,98174.14
2022-09-29T06:53:03.213Z,98175.8
2022-09-29T06:54:07.736Z,98172.64
2022-09-29T06:54:56.918Z,98175.52
2022-09-29T06:55:56.918Z,98175.52
2022-09-29T06:56:56.922Z,98176.89
2022-09-29T06:58:00.144Z,98177.8
2022-09-29T06:59:01.091Z,98179.03
2022-09-29T07:00:00.890Z,98173.48
2022-09-29T07:01:01.634Z,98170.88
2022-09-29T07:02:00.526Z,98176.97
2022-09-29T07:03:00.576Z,98179.02
2022-09-29T07:04:01.135Z,98172.98
2022-09-29T07:05:00.578Z,98175.65
2022-09-29T07:06:20.579Z,98175.78
2022-09-29T07:07:02.093Z,98176.45
2022-09-29T07:08:02.112Z,98178.02
2022-09-29T07:09:02.166Z,98175.4
2022-09-29T07:10:02.121Z,98175.89
2022-09-29T07:11:02.306Z,98176.2
2022-09-29T07:12:02.153Z,98173.88
2022-09-29T07:13:02.163Z,98174.62
2022-09-29T07:14:02.333Z,98174.58
2022-09-29T07:15:02.199Z,98177.77
2022-09-29T07:16:06.465Z,98179.27
2022-09-29T07:17:02.818Z,98178.86
2022-09-29T07:18:02.860Z,98180.09
2022-09-29T07:19:03.444Z,98176.09
2022-09-29T07:20:03.092Z,98176.92
2022-09-29T07:21:03.598Z,98178.06
2022-09-29T07:22:03.570Z,98182.05
2022-09-29T07:23:02.906Z,98178.7
2022-09-29T07:24:03.558Z,98180.46
2022-09-29T07:25:03.191Z,98181.49
2022-09-29T07:26:03.372Z,98179.38
2022-09-29T07:27:03.297Z,98181.35
2022-09-29T07:28:02.974Z,98180.83
2022-09-29T07:29:03.153Z,98181.91
2022-09-29T07:30:04.579Z,98187.59
2022-09-29T07:31:13.820Z,98182.44
2022-09-29T07:32:06.977Z,98182.23
2022-09-29T07:33:06.064Z,98180.08
2022-09-29T07:34:06.508Z,98180.84
2022-09-29T07:35:06.624Z,98184.07
2022-09-29T07:36:06.655Z,98182.23
2022-09-29T07:37:06.065Z,98182.5
2022-09-29T07:38:06.097Z,98178.04
2022-09-29T07:39:06.397Z,98182.46
2022-09-29T07:40:06.603Z,98181.02
2022-09-29T07:41:07.211Z,98181.47
2022-09-29T07:42:09.148Z,98183.25
2022-09-29T07:43:06.150Z,98186.67
2022-09-29T07:44:06.408Z,98183.33
2022-09-29T07:45:06.986Z,98186.33
2022-09-29T07:46:07.228Z,98183.19
2022-09-29T07:47:06.169Z,98185.09
2022-09-29T07:48:06.197Z,98182.58
2022-09-29T07:49:06.638Z,98184.86
2022-09-29T07:50:06.770Z,98186.08
2022-09-29T07:52:07.892Z,98179.75
2022-09-29T07:53:07.800Z,98179.49
2022-09-29T07:54:07.828Z,98184.88
2022-09-29T07:55:08.658Z,98177.88
2022-09-29T07:56:09.251Z,98181.48
2022-09-29T07:57:07.872Z,98183.68
2022-09-29T07:58:07.893Z,98179.33
2022-09-29T07:59:10.090Z,98178.95
2022-09-29T08:00:08.665Z,98181.18
2022-09-29T08:01:08.863Z,98179.31
2022-09-29T08:02:08.052Z,98182.09
2022-09-29T08:03:07.973Z,98186.3
2022-09-29T08:04:07.962Z,98188.11
2022-09-29T08:05:08.608Z,98189.58
2022-09-29T08:06:08.916Z,98186.56
2022-09-29T08:07:08.018Z,98188
2022-09-29T08:08:08.003Z,98190.12
2022-09-29T08:09:08.038Z,98192.84
2022-09-29T08:10:16.678Z,98194.5
2022-09-29T08:11:13.704Z,98195.77
2022-09-29T08:12:12.942Z,98190.3
2022-09-29T08:13:12.753Z,98195.95
2022-09-29T08:14:12.801Z,98194.95
2022-09-29T08:15:12.766Z,98194.02
2022-09-29T08:16:13.840Z,98199.64
2022-09-29T08:17:12.789Z,98196.3
2022-09-29T08:18:12.821Z,98194.02
2022-09-29T08:20:12.990Z,98196.78
2022-09-29T08:21:13.212Z,98194.12
2022-09-29T08:22:13.059Z,98192.55
2022-09-29T08:23:12.852Z,98190.59
2022-09-29T08:24:13.338Z,98189.42
2022-09-29T08:25:12.930Z,98193.41
2022-09-29T08:26:14.375Z,98188.46
2022-09-29T08:27:18.902Z,98190.92
2022-09-29T08:28:26.764Z,98188
2022-09-29T08:29:19.858Z,98191
2022-09-29T08:30:19.899Z,98190.39
2022-09-29T08:31:20.590Z,98192.06
2022-09-29T08:32:19.885Z,98191.41
2022-09-29T08:33:19.862Z,98188.28
2022-09-29T08:34:20.334Z,98192.98
2022-09-29T08:35:20.056Z,98189.98
2022-09-29T08:36:20.453Z,98190.38
2022-09-29T08:37:20.054Z,98190.92
2022-09-29T08:38:19.977Z,98192.42
2022-09-29T08:39:19.987Z,98190.96
2022-09-29T08:40:20.195Z,98194.83
2022-09-29T08:42:45.263Z,98197.58
2022-09-29T08:43:35.026Z,98191.62
2022-09-29T08:45:30.421Z,98194.28
2022-09-29T08:46:35.726Z,98191.7
2022-09-29T08:47:43.444Z,98194.12
2022-09-29T08:48:35.750Z,98195.45
2022-09-29T08:49:41.147Z,98195.88
2022-09-29T08:50:37.454Z,98195.61
2022-09-29T08:51:42.300Z,98200.12
2022-09-29T08:52:48.707Z,98195.27
2022-09-29T08:53:50.685Z,98200.79
2022-09-29T08:54:48.130Z,98200.27
2022-09-29T08:55:48.476Z,98199.19
2022-09-29T08:56:46.924Z,98196.59
2022-09-29T08:57:47.558Z,98197.05
2022-09-29T08:58:46.765Z,98199.67
2022-09-29T08:59:57.527Z,98196.38
2022-09-29T09:20:48.065Z,98178.76
2022-09-29T09:21:50.994Z,98181.71
2022-09-29T09:22:55.494Z,98182.83
2022-09-29T09:23:59.958Z,98178.7
2022-09-29T09:25:04.634Z,98181.71
2022-09-29T09:26:00.942Z,98178.55
2022-09-29T09:26:58.719Z,98178.8
2022-09-29T09:28:04.949Z,98183.78
2022-09-29T09:29:08.949Z,98181.47
2022-09-29T09:30:07.378Z,98181.2
2022-09-29T09:31:15.999Z,98181.76
2022-09-29T09:37:22.512Z,98171.85
2022-09-29T09:38:21.346Z,98175.7
2022-09-29T09:39:25.819Z,98174.08
2022-09-29T09:40:26.472Z,98172.93
2022-09-29T09:41:24.397Z,98170.44
2022-09-29T09:42:31.877Z,98164.17
2022-09-29T09:44:33.182Z,98168.98
2022-09-29T09:45:32.837Z,98173.16
2022-09-29T09:46:34.684Z,98171.57
2022-09-29T09:47:33.755Z,98174.27
2022-09-29T09:50:39.608Z,98172.34
2022-09-29T09:53:45.180Z,98170.91
2022-09-29T09:54:46.051Z,98172.58
2022-09-29T09:55:43.655Z,98170.76
2022-09-29T10:00:53.023Z,98172.95
2022-09-29T10:01:49.980Z,98170.67
2022-09-29T10:02:50.747Z,98171.86
2022-09-29T10:03:49.825Z,98169.87
2022-09-29T10:04:51.506Z,98169.16
2022-09-29T10:05:50.271Z,98171.4
2022-09-29T10:06:50.576Z,98170.61
2022-09-29T10:07:50.378Z,98172.16
2022-09-29T10:08:50.120Z,98168.17
2022-09-29T10:09:50.231Z,98167.25
2022-09-29T10:10:58.175Z,98164.75
2022-09-29T10:11:51.552Z,98169.31
2022-09-29T10:13:04.771Z,98168.84
2022-09-29T10:15:01.476Z,98161.47
2022-09-29T10:17:03.782Z,98162.42
2022-09-29T10:19:06.923Z,98159.48
2022-09-29T10:20:08.522Z,98163.34
2022-09-29T10:22:12.963Z,98166.91
2022-09-29T10:23:23.523Z,98164.7
2022-09-29T10:24:28.200Z,98167.33
2022-09-29T10:25:20.784Z,98165.59
2022-09-29T10:26:27.264Z,98165.88
2022-09-29T10:27:25.232Z,98163.24
2022-09-29T10:28:25.648Z,98166.44
2022-09-29T10:31:32.333Z,98167.02
2022-09-29T10:33:30.971Z,98175.47
2022-09-29T10:34:32.083Z,98173.52
2022-09-29T10:37:39.318Z,98179.31
2022-09-29T10:38:37.837Z,98181.75
2022-09-29T10:39:47.213Z,98179.66
2022-09-29T10:41:50.316Z,98179.88
2022-09-29T10:42:43.655Z,98182.82
2022-09-29T10:43:42.871Z,98181.75
2022-09-29T10:44:42.012Z,98181.37
2022-09-29T10:45:48.315Z,98178.26
2022-09-29T10:46:53.140Z,98178.82
2022-09-29T10:50:58.750Z,98181.53
2022-09-29T10:51:59.647Z,98184.02
2022-09-29T10:52:58.196Z,98181.94
2022-09-29T10:54:59.127Z,98180.47
2022-09-29T10:55:58.389Z,98176.4
2022-09-29T10:56:58.584Z,98178.8
2022-09-29T10:57:59.503Z,98178.7
2022-09-29T10:59:05.605Z,98178.39
2022-09-29T11:00:03.521Z,98183.91
2022-09-29T11:02:04.901Z,98179.8
2022-09-29T11:04:16.506Z,98184.39
2022-09-29T11:05:18.127Z,98187.49
2022-09-29T11:06:13.127Z,98184.64
2022-09-29T11:07:11.463Z,98187.45
2022-09-29T11:08:11.813Z,98184.71
2022-09-29T11:15:23.392Z,98189.98
2022-09-29T11:18:28.571Z,98189.75
2022-09-29T11:19:25.163Z,98192.29
2022-09-29T11:20:29.387Z,98192.18
2022-09-29T11:37:14.239Z,98182.25
2022-09-29T11:48:44.717Z,98179.97
2022-09-29T11:56:10.285Z,98172.31
2022-09-29T11:57:07.740Z,98176.03
2022-09-29T12:00:17.969Z,98173.16
2022-09-29T12:01:27.199Z,98169.98
2022-09-29T12:12:18.844Z,98183.33
2022-09-29T12:15:57.392Z,98189.81
2022-09-29T12:17:58.948Z,98188.32
2022-09-29T12:20:58.768Z,98186.35
2022-09-29T12:22:00.021Z,98191.23
2022-09-29T12:23:01.215Z,98190.05
2022-09-29T12:24:00.413Z,98187.87
2022-09-29T12:24:59.095Z,98190.89
2022-09-29T12:26:02.604Z,98189.08
2022-09-29T12:26:59.856Z,98191.4
2022-09-29T12:28:02.412Z,98190.88
2022-09-29T12:29:02.889Z,98189.91
2022-09-29T12:31:04.911Z,98190.58
2022-09-29T12:32:05.180Z,98196
2022-09-29T12:37:20.870Z,98199.89
2022-09-29T12:39:36.582Z,98202.52
2022-09-29T12:40:28.898Z,98198.93
2022-09-29T12:41:29.525Z,98200.47
2022-09-29T12:43:43.872Z,98201.08
2022-09-29T12:44:44.395Z,98197.12
2022-09-29T12:46:41.745Z,98204.02
2022-09-29T12:50:57.521Z,98200.23
2022-09-29T12:51:50.163Z,98199.91
2022-09-29T12:52:55.103Z,98199.34
2022-09-29T12:54:55.794Z,98193.35
2022-09-29T12:55:56.494Z,98196.73
2022-09-29T12:56:57.179Z,98197.03
2022-09-29T12:57:56.196Z,98199.42
2022-09-29T13:01:03.305Z,98197.38
2022-09-29T13:02:02.623Z,98200.89
2022-09-29T13:16:50.793Z,98197.59
2022-09-29T13:27:21.831Z,98215.61
2022-09-29T13:29:12.243Z,98215.3
2022-09-29T13:30:20.017Z,98216.38
2022-09-29T13:31:14.978Z,98218.19
2022-09-29T13:32:12.545Z,98220.48
2022-09-29T13:33:19.644Z,98221.7
2022-09-29T13:34:27.737Z,98224.12
2022-09-29T13:35:21.289Z,98220.31
2022-09-29T13:36:22.947Z,98221.78
2022-09-29T13:37:21.624Z,98218.84
2022-09-29T13:38:21.113Z,98221.23
2022-09-29T13:39:25.309Z,98222.95
2022-09-29T13:40:25.774Z,98220.85
2022-09-29T13:44:27.956Z,98223.49
2022-09-29T13:45:38.866Z,98215.38
2022-09-29T13:46:39.430Z,98218.3
2022-09-29T13:47:33.076Z,98217.95
2022-09-29T13:48:35.203Z,98215.23
2022-09-29T13:49:31.858Z,98218.42
2022-09-29T13:52:40.056Z,98219.69
2022-09-29T13:53:37.076Z,98216.71
2022-09-29T13:54:37.786Z,98220.09
2022-09-29T13:56:40.261Z,98221.41
2022-09-29T13:59:46.623Z,98223.62
2022-09-29T14:00:43.916Z,98225.6
2022-09-29T14:01:44.139Z,98225.25
2022-09-29T14:03:47.247Z,98229.14
2022-09-29T14:04:56.174Z,98228.02
2022-09-29T14:05:51.905Z,98227.02
2022-09-29T14:06:48.715Z,98233.02
2022-09-29T14:09:51.587Z,98229.48
2022-09-29T14:11:54.628Z,98230.48
2022-09-29T14:12:59.214Z,98230.53
2022-09-29T14:13:58.447Z,98230.95
2022-09-29T14:14:58.012Z,98233.31
2022-09-29T14:18:04.414Z,98234.06
2022-09-29T14:20:16.054Z,98234.1
2022-09-29T14:21:12.104Z,98237.27
2022-09-29T14:23:08.508Z,98235.72
2022-09-29T14:28:21.847Z,98229.76
2022-09-29T14:31:26.644Z,98232
2022-09-29T14:34:32.726Z,98239.22
2022-09-29T14:35:34.221Z,98239
2022-09-29T14:36:33.058Z,98238.48
2022-09-29T14:37:30.660Z,98239.21
2022-09-29T14:39:33.105Z,98236.64
2022-09-29T14:40:33.025Z,98233.61
2022-09-29T14:42:35.934Z,98234.46
2022-09-29T14:44:37.955Z,98231.09
2022-09-29T14:45:45.344Z,98232.97
2022-09-29T14:48:00.789Z,98226.62
2022-09-29T15:00:23.819Z,98228.72
2022-09-29T15:01:28.677Z,98224.02
2022-09-29T15:02:27.139Z,98226.27
2022-09-29T15:03:30.266Z,98227.62
2022-09-29T15:04:27.197Z,98227.83
2022-09-29T15:05:31.117Z,98225.77
2022-09-29T15:06:28.896Z,98228.92
2022-09-29T15:07:28.562Z,98234.86
2022-09-29T15:08:29.391Z,98235.4
2022-09-29T15:09:35.250Z,98235.93
2022-09-29T15:10:40.773Z,98229.83
2022-09-29T15:12:36.312Z,98230.16
2022-09-29T15:13:36.331Z,98232.96
2022-09-29T15:14:41.564Z,98236.73
2022-09-29T15:15:40.620Z,98240.5
2022-09-29T15:20:54.914Z,98245.51
2022-09-29T15:23:08.161Z,98243.43
2022-09-29T15:26:12.895Z,98247.44
2022-09-29T15:27:13.048Z,98249.3
2022-09-29T15:28:16.027Z,98246.83
2022-09-29T15:29:17.302Z,98243.14
2022-09-29T15:30:16.221Z,98245.27
2022-09-29T15:31:21.555Z,98241.06
2022-09-29T15:32:20.860Z,98237.67
2022-09-29T15:33:23.269Z,98242.39
2022-09-29T15:34:21.292Z,98244.05
2022-09-29T15:35:22.039Z,98241.01
2022-09-29T15:36:24.557Z,98241.55
2022-09-29T15:37:21.381Z,98246.47
2022-09-29T15:38:28.788Z,98249.39
2022-09-29T15:40:26.931Z,98250.09
2022-09-29T15:41:29.273Z,98252.84
2022-09-29T15:42:27.762Z,98251.78
2022-09-29T15:43:29.054Z,98251.22
2022-09-29T15:44:28.399Z,98250.66
2022-09-29T15:45:27.657Z,98249.95
2022-09-29T15:47:34.582Z,98245.94
2022-09-29T15:48:30.775Z,98245.48
2022-09-29T15:49:30.810Z,98245.24
2022-09-29T15:50:32.143Z,98244.78
2022-09-29T15:51:31.425Z,98242.44
2022-09-29T15:52:32.762Z,98246.22
2022-09-29T15:53:31.051Z,98245.02
2022-09-29T15:55:32.896Z,98248.52
2022-09-29T15:56:32.882Z,98250.11
2022-09-29T15:58:34.772Z,98248.34
2022-09-29T15:59:40.599Z,98257.09
2022-09-29T16:00:46.172Z,98255.52
2022-09-29T16:01:37.977Z,98252.56
2022-09-29T16:02:40.746Z,98255.62
2022-09-29T16:04:39.348Z,98254.62
2022-09-29T16:05:44.520Z,98250.48
2022-09-29T16:06:43.894Z,98252.83
2022-09-29T16:09:46.064Z,98259.36
2022-09-29T16:11:47.711Z,98259.16
2022-09-29T16:13:51.207Z,98264.56
2022-09-29T16:14:54.121Z,98266.84